Time;durP1;ratioP1;P1;durP2;ratioP2;P2;SDS_P1;SDS_P2;PMS_P1;PMS_P2;Temp;Humidity;BMP_temperature;BMP_pressure;BME280_temperature;BME280_humidity;BME280_pressure;Samples;Min_cycle;Max_cycle;Signal;HPM_P1;HPM_P2
2023/05/16 00:01:55;;;;;;;0.00;0.00;;;8.90;81.00;;;;;;5012734;28;20062;-63
2023/05/16 00:04:21;;;;;;;0.45;0.17;;;8.90;81.00;;;;;;5012402;28;20034;-63
2023/05/16 00:06:47;;;;;;;0.00;0.00;;;8.80;81.00;;;;;;5011388;28;20413;-63
2023/05/16 00:09:12;;;;;;;0.00;0.00;;;8.80;81.00;;;;;;5011536;28;20060;-63
2023/05/16 00:11:38;;;;;;;0.10;0.10;;;8.80;81.10;;;;;;5012209;28;20081;-63
2023/05/16 00:14:04;;;;;;;0.10;0.10;;;8.70;81.60;;;;;;5012403;28;20038;-63
2023/05/16 00:16:29;;;;;;;0.00;0.00;;;8.70;81.80;;;;;;5011546;28;20407;-63
2023/05/16 00:18:56;;;;;;;0.00;0.00;;;8.70;82.10;;;;;;5012416;28;20103;-63
2023/05/16 00:21:23;;;;;;;0.00;0.00;;;8.70;82.10;;;;;;5010608;28;20056;-63
2023/05/16 00:23:50;;;;;;;0.00;0.00;;;8.70;82.10;;;;;;5012189;28;20120;-63
2023/05/16 00:26:15;;;;;;;0.00;0.00;;;8.60;82.10;;;;;;5012060;28;20049;-63
2023/05/16 00:28:41;;;;;;;0.00;0.00;;;8.50;82.50;;;;;;5011911;28;20462;-63
2023/05/16 00:31:06;;;;;;;0.00;0.00;;;8.50;82.60;;;;;;5010903;28;20125;-63
2023/05/16 00:33:34;;;;;;;0.75;0.55;;;8.50;82.60;;;;;;5012033;28;20049;-63
2023/05/16 00:35:59;;;;;;;0.00;0.00;;;8.40;82.50;;;;;;4994226;28;20042;-63
2023/05/16 00:38:25;;;;;;;0.10;0.10;;;8.40;82.70;;;;;;5011789;28;20052;-63
2023/05/16 00:40:50;;;;;;;0.00;0.00;;;8.40;82.80;;;;;;5011757;28;20081;-63
2023/05/16 00:43:16;;;;;;;0.00;0.00;;;8.40;82.80;;;;;;5011825;28;20124;-63
2023/05/16 00:45:42;;;;;;;0.10;0.10;;;8.30;82.80;;;;;;5011861;28;20049;-63
2023/05/16 00:48:08;;;;;;;0.00;0.00;;;8.40;82.80;;;;;;5011320;28;20046;-63
2023/05/16 00:50:35;;;;;;;0.00;0.00;;;8.30;82.90;;;;;;5010310;28;20049;-62
2023/05/16 00:53:00;;;;;;;0.10;0.10;;;8.30;82.90;;;;;;4994219;28;20104;-63
2023/05/16 00:55:26;;;;;;;0.00;0.00;;;8.30;82.90;;;;;;4993690;28;20088;-63
2023/05/16 00:57:52;;;;;;;0.15;0.15;;;8.30;82.80;;;;;;5011761;28;20046;-63
2023/05/16 01:00:18;;;;;;;0.00;0.00;;;8.40;82.80;;;;;;5011166;28;20450;-63
2023/05/16 01:02:45;;;;;;;0.00;0.00;;;8.40;82.80;;;;;;5011970;28;20045;-63
2023/05/16 01:05:10;;;;;;;0.00;0.00;;;8.40;82.70;;;;;;5011097;28;20049;-63
2023/05/16 01:07:36;;;;;;;0.00;0.00;;;8.40;82.70;;;;;;5010023;28;20046;-63
2023/05/16 01:10:04;;;;;;;0.00;0.00;;;8.40;82.70;;;;;;5011444;28;20081;-63
2023/05/16 01:12:42;;;;;;;0.00;0.00;;;8.40;82.70;;;;;;5011050;28;20498;-63
2023/05/16 01:15:21;;;;;;;0.00;0.00;;;8.40;82.70;;;;;;5010763;28;20053;-63
2023/05/16 01:17:59;;;;;;;0.00;0.00;;;8.40;82.60;;;;;;5011069;28;20048;-63
2023/05/16 01:20:38;;;;;;;0.00;0.00;;;8.40;82.80;;;;;;5011251;28;20049;-63
2023/05/16 01:23:52;;;;;;;0.00;0.00;;;8.30;82.90;;;;;;5011244;28;20065;-63
2023/05/16 01:26:23;;;;;;;0.00;0.00;;;8.30;83.00;;;;;;5001430;28;20096;-63
2023/05/16 01:28:50;;;;;;;0.28;0.28;;;8.40;83.10;;;;;;5010238;28;20402;-63
2023/05/16 01:31:17;;;;;;;0.00;0.00;;;8.40;83.10;;;;;;5009958;28;20483;-62
2023/05/16 01:33:43;;;;;;;0.00;0.00;;;8.30;83.20;;;;;;5010967;28;20046;-63
2023/05/16 01:36:23;;;;;;;0.10;0.10;;;8.30;83.10;;;;;;5010588;28;20038;-63
2023/05/16 01:39:08;;;;;;;0.00;0.00;;;8.20;83.20;;;;;;5009537;28;20376;-63
2023/05/16 01:41:46;;;;;;;0.00;0.00;;;8.20;83.20;;;;;;4999769;28;20518;-63
2023/05/16 01:44:31;;;;;;;0.00;0.00;;;8.20;83.30;;;;;;5010713;28;20128;-63
2023/05/16 01:47:00;;;;;;;0.10;0.10;;;8.10;83.50;;;;;;5010672;28;20521;-63
2023/05/16 01:49:34;;;;;;;0.00;0.00;;;8.10;83.40;;;;;;5010575;28;20116;-63
2023/05/16 01:52:04;;;;;;;0.00;0.00;;;8.10;83.70;;;;;;5010660;28;20443;-64
2023/05/16 01:54:32;;;;;;;0.00;0.00;;;8.00;83.70;;;;;;5010342;28;20522;-63
2023/05/16 01:56:59;;;;;;;0.10;0.10;;;7.90;84.10;;;;;;5010365;28;20079;-63
2023/05/16 01:59:26;;;;;;;0.00;0.00;;;7.90;84.30;;;;;;5010420;28;20041;-63
2023/05/16 02:01:56;;;;;;;0.40;0.40;;;7.90;84.30;;;;;;5010603;28;20084;-63
2023/05/16 02:04:23;;;;;;;2.92;0.60;;;7.90;84.30;;;;;;5010357;28;20038;-63
2023/05/16 02:06:49;;;;;;;0.00;0.00;;;7.80;84.40;;;;;;5010070;28;20042;-63
2023/05/16 02:09:15;;;;;;;0.00;0.00;;;7.90;84.40;;;;;;5010080;28;20042;-63
2023/05/16 02:11:40;;;;;;;0.00;0.00;;;7.90;84.40;;;;;;5010514;28;20065;-63
2023/05/16 02:14:06;;;;;;;0.00;0.00;;;7.90;84.20;;;;;;5010137;28;20042;-63
2023/05/16 02:16:32;;;;;;;7.78;1.75;;;7.90;84.20;;;;;;5010102;28;20157;-63
2023/05/16 02:18:58;;;;;;;0.10;0.10;;;7.90;84.20;;;;;;5009920;28;20491;-63
2023/05/16 02:21:24;;;;;;;0.00;0.00;;;7.90;84.30;;;;;;5010006;28;20091;-62
2023/05/16 02:23:49;;;;;;;0.00;0.00;;;7.80;84.20;;;;;;5010251;28;20053;-63
2023/05/16 02:26:15;;;;;;;0.00;0.00;;;7.80;84.10;;;;;;5010014;28;20135;-63
2023/05/16 02:28:41;;;;;;;0.00;0.00;;;7.80;84.30;;;;;;5009903;28;20044;-63
2023/05/16 02:31:06;;;;;;;1.20;1.10;;;7.80;84.20;;;;;;5009641;28;20061;-63
2023/05/16 02:33:33;;;;;;;1.98;1.38;;;7.70;84.00;;;;;;5010047;28;20038;-62
2023/05/16 02:35:59;;;;;;;0.00;0.00;;;7.70;84.10;;;;;;5009977;28;20121;-63
2023/05/16 02:38:24;;;;;;;0.00;0.00;;;7.60;84.00;;;;;;5009598;28;20113;-63
2023/05/16 02:40:50;;;;;;;0.00;0.00;;;7.60;84.00;;;;;;5009431;28;20134;-63
2023/05/16 02:43:16;;;;;;;0.00;0.00;;;7.60;83.90;;;;;;5009956;28;20574;-63
2023/05/16 02:45:41;;;;;;;0.10;0.10;;;7.60;83.80;;;;;;4992190;28;20057;-63
2023/05/16 02:48:07;;;;;;;0.00;0.00;;;7.60;83.70;;;;;;5009644;28;20054;-63
2023/05/16 02:50:33;;;;;;;0.00;0.00;;;7.60;83.70;;;;;;5009810;28;20053;-63
2023/05/16 02:53:01;;;;;;;0.00;0.00;;;7.70;83.60;;;;;;5009970;28;20076;-63
2023/05/16 02:55:29;;;;;;;0.00;0.00;;;7.70;83.50;;;;;;5008063;28;20107;-63
2023/05/16 02:57:55;;;;;;;0.00;0.00;;;7.70;83.60;;;;;;5009661;28;20577;-63
2023/05/16 03:00:21;;;;;;;0.08;0.08;;;7.70;83.40;;;;;;5009653;28;20125;-63
2023/05/16 03:02:48;;;;;;;0.00;0.00;;;7.70;83.30;;;;;;5009712;28;20050;-63
2023/05/16 03:05:13;;;;;;;0.00;0.00;;;7.70;83.50;;;;;;5009610;28;20054;-63
2023/05/16 03:07:39;;;;;;;0.00;0.00;;;7.80;83.30;;;;;;5009553;28;20042;-63
2023/05/16 03:10:05;;;;;;;0.00;0.00;;;7.70;83.40;;;;;;5009358;28;20156;-63
2023/05/16 03:12:31;;;;;;;0.00;0.00;;;7.70;83.20;;;;;;5009577;28;20045;-63
2023/05/16 03:14:56;;;;;;;0.00;0.00;;;7.70;83.30;;;;;;5009757;28;20045;-63
2023/05/16 03:17:22;;;;;;;0.43;0.40;;;7.70;83.30;;;;;;5009577;28;20049;-63
2023/05/16 03:19:48;;;;;;;0.03;0.03;;;7.80;83.20;;;;;;5009247;28;20046;-63
2023/05/16 03:22:13;;;;;;;0.40;0.40;;;7.80;83.00;;;;;;5008080;28;20050;-63
2023/05/16 03:24:39;;;;;;;0.00;0.00;;;7.70;83.00;;;;;;5009442;28;20115;-63
2023/05/16 03:27:05;;;;;;;0.10;0.10;;;7.70;82.90;;;;;;5009574;28;20046;-62
2023/05/16 03:29:30;;;;;;;0.00;0.00;;;7.70;83.00;;;;;;5009187;28;20050;-63
2023/05/16 03:31:56;;;;;;;0.95;0.95;;;7.70;82.80;;;;;;5009627;28;20049;-63
2023/05/16 03:34:22;;;;;;;0.00;0.00;;;7.70;82.90;;;;;;5008980;28;20062;-63
2023/05/16 03:36:51;;;;;;;0.00;0.00;;;7.60;82.90;;;;;;5009253;28;20426;-63
2023/05/16 03:39:16;;;;;;;0.00;0.00;;;7.70;83.10;;;;;;5009394;28;20418;-63
2023/05/16 03:41:42;;;;;;;0.00;0.00;;;7.70;83.00;;;;;;5009513;28;20046;-63
2023/05/16 03:44:08;;;;;;;0.00;0.00;;;7.60;83.20;;;;;;5009211;28;20045;-63
2023/05/16 03:46:34;;;;;;;0.00;0.00;;;7.70;83.20;;;;;;5007865;28;20506;-63
2023/05/16 03:49:00;;;;;;;0.00;0.00;;;7.70;83.20;;;;;;5008163;28;20090;-63
2023/05/16 03:51:27;;;;;;;0.00;0.00;;;7.70;83.30;;;;;;5011840;28;20116;-63
2023/05/16 03:53:53;;;;;;;0.00;0.00;;;7.70;83.30;;;;;;5012670;28;20038;-63
2023/05/16 03:56:18;;;;;;;0.00;0.00;;;7.70;83.20;;;;;;5012404;28;20052;-63
2023/05/16 03:58:44;;;;;;;0.00;0.00;;;7.70;83.30;;;;;;5012776;28;20045;-63
2023/05/16 04:01:09;;;;;;;0.00;0.00;;;7.70;83.40;;;;;;5011417;28;20042;-63
2023/05/16 04:03:37;;;;;;;0.00;0.00;;;7.70;83.30;;;;;;5012688;28;20132;-63
2023/05/16 04:06:03;;;;;;;0.00;0.00;;;7.70;83.40;;;;;;5012262;28;20049;-63
2023/05/16 04:08:28;;;;;;;0.00;0.00;;;7.80;83.40;;;;;;5011791;28;20394;-63
2023/05/16 04:10:54;;;;;;;0.00;0.00;;;7.70;83.20;;;;;;5012632;28;20045;-63
2023/05/16 04:13:20;;;;;;;0.10;0.10;;;7.70;83.20;;;;;;5011273;28;20049;-63
2023/05/16 04:15:46;;;;;;;0.00;0.00;;;7.70;83.30;;;;;;5012690;28;20542;-63
2023/05/16 04:18:12;;;;;;;0.00;0.00;;;7.70;83.30;;;;;;5011719;28;20038;-63
2023/05/16 04:20:37;;;;;;;0.00;0.00;;;7.70;83.30;;;;;;5012249;28;20088;-63
2023/05/16 04:23:03;;;;;;;0.00;0.00;;;7.60;83.10;;;;;;5012143;28;20053;-63
2023/05/16 04:25:30;;;;;;;0.00;0.00;;;7.60;83.50;;;;;;5011693;28;20128;-63
2023/05/16 04:27:56;;;;;;;0.00;0.00;;;7.60;83.50;;;;;;5011942;28;20043;-63
2023/05/16 04:30:21;;;;;;;0.00;0.00;;;7.60;83.80;;;;;;5011714;28;20045;-63
2023/05/16 04:32:47;;;;;;;0.00;0.00;;;7.60;84.00;;;;;;5011975;28;20184;-63
2023/05/16 04:35:12;;;;;;;0.52;0.52;;;7.60;84.10;;;;;;5012073;28;20041;-63
2023/05/16 04:37:38;;;;;;;0.35;0.25;;;7.70;84.00;;;;;;5011881;28;20042;-66
2023/05/16 04:40:06;;;;;;;0.00;0.00;;;7.70;84.00;;;;;;5011491;28;20037;-66
2023/05/16 04:42:32;;;;;;;0.00;0.00;;;7.80;84.10;;;;;;5011636;28;20081;-66
2023/05/16 04:44:57;;;;;;;0.00;0.00;;;7.80;84.00;;;;;;5011742;28;20077;-65
2023/05/16 04:47:23;;;;;;;0.00;0.00;;;7.80;83.90;;;;;;5010130;28;20469;-65
2023/05/16 04:49:49;;;;;;;0.00;0.00;;;7.80;83.70;;;;;;5011634;28;20049;-65
2023/05/16 04:52:15;;;;;;;0.00;0.00;;;7.90;83.90;;;;;;5010497;28;20050;-63
2023/05/16 04:54:41;;;;;;;0.00;0.00;;;7.90;84.10;;;;;;5011735;28;20038;-63
2023/05/16 04:57:06;;;;;;;0.00;0.00;;;8.00;83.90;;;;;;5011569;28;20422;-63
2023/05/16 04:59:32;;;;;;;0.00;0.00;;;8.10;83.90;;;;;;5011767;28;20038;-63
2023/05/16 05:01:58;;;;;;;0.00;0.00;;;8.20;83.70;;;;;;5011110;28;20049;-63
2023/05/16 05:04:23;;;;;;;0.00;0.00;;;8.20;83.70;;;;;;5011517;28;20133;-63
2023/05/16 05:06:49;;;;;;;0.00;0.00;;;8.30;83.60;;;;;;5011228;28;20158;-63
2023/05/16 05:09:16;;;;;;;0.00;0.00;;;8.40;83.50;;;;;;5011164;28;20521;-63
2023/05/16 05:11:41;;;;;;;0.00;0.00;;;8.50;83.20;;;;;;5011325;28;20550;-63
2023/05/16 05:14:07;;;;;;;0.00;0.00;;;8.60;83.30;;;;;;5011080;28;20223;-63
2023/05/16 05:16:33;;;;;;;0.00;0.00;;;8.80;83.20;;;;;;5011094;28;20037;-64
2023/05/16 05:18:59;;;;;;;0.00;0.00;;;8.80;82.90;;;;;;5011180;28;20491;-64
2023/05/16 05:21:24;;;;;;;0.00;0.00;;;9.00;83.00;;;;;;5011009;28;20044;-63
2023/05/16 05:23:50;;;;;;;0.47;0.47;;;9.10;82.90;;;;;;5010975;28;20121;-64
2023/05/16 05:26:16;;;;;;;0.10;0.10;;;9.20;83.40;;;;;;5010608;28;20490;-64
2023/05/16 05:28:42;;;;;;;0.00;0.00;;;9.30;83.30;;;;;;5010956;28;20038;-63
2023/05/16 05:31:08;;;;;;;0.05;0.05;;;9.30;82.40;;;;;;5011017;28;20836;-63
2023/05/16 05:33:33;;;;;;;0.00;0.00;;;9.20;81.80;;;;;;5011022;28;20050;-64
2023/05/16 05:35:59;;;;;;;0.30;0.30;;;9.10;82.30;;;;;;5010465;28;20682;-63
2023/05/16 05:38:25;;;;;;;0.08;0.08;;;9.20;81.90;;;;;;5010911;28;20050;-63
2023/05/16 05:40:50;;;;;;;41.88;1.20;;;9.20;82.50;;;;;;5009365;28;20042;-64
2023/05/16 05:43:16;;;;;;;0.00;0.00;;;9.30;82.20;;;;;;5010362;28;21067;-64
2023/05/16 05:45:42;;;;;;;0.00;0.00;;;9.30;82.10;;;;;;5009105;28;20042;-64
2023/05/16 05:48:09;;;;;;;0.03;0.03;;;9.40;82.00;;;;;;5010372;28;20909;-63
2023/05/16 05:50:35;;;;;;;0.00;0.00;;;9.50;81.70;;;;;;5009399;28;20088;-64
2023/05/16 05:53:01;;;;;;;1.35;1.00;;;9.60;82.00;;;;;;5010458;28;20077;-63
2023/05/16 05:55:27;;;;;;;0.00;0.00;;;9.70;82.00;;;;;;5010341;28;20038;-64
2023/05/16 05:57:52;;;;;;;0.00;0.00;;;9.70;81.30;;;;;;5010427;28;20046;-65
2023/05/16 06:00:18;;;;;;;1.85;1.13;;;9.80;81.20;;;;;;5010285;28;20037;-63
2023/05/16 06:02:43;;;;;;;0.00;0.00;;;9.80;81.50;;;;;;5010116;28;20096;-64
2023/05/16 06:05:09;;;;;;;0.00;0.00;;;9.80;81.30;;;;;;5010639;28;20042;-63
2023/05/16 06:07:35;;;;;;;0.57;0.57;;;9.80;80.60;;;;;;5011250;28;20053;-63
2023/05/16 06:10:03;;;;;;;0.00;0.00;;;9.80;80.30;;;;;;5011306;28;20038;-64
2023/05/16 06:12:29;;;;;;;0.00;0.00;;;9.80;79.20;;;;;;5008885;28;20057;-63
2023/05/16 06:14:55;;;;;;;0.00;0.00;;;9.80;79.10;;;;;;5010930;28;20421;-63
2023/05/16 06:17:20;;;;;;;0.00;0.00;;;9.90;78.60;;;;;;5009681;28;20050;-63
2023/05/16 06:19:46;;;;;;;0.00;0.00;;;9.90;78.80;;;;;;5011173;28;20037;-64
2023/05/16 06:22:12;;;;;;;0.00;0.00;;;10.00;79.10;;;;;;5009436;28;20045;-64
2023/05/16 06:24:37;;;;;;;0.00;0.00;;;10.10;78.70;;;;;;5010703;28;20073;-63
2023/05/16 06:27:03;;;;;;;0.00;0.00;;;10.10;78.40;;;;;;5010191;28;20049;-63
2023/05/16 06:29:28;;;;;;;0.00;0.00;;;10.10;78.50;;;;;;5009283;28;20136;-63
2023/05/16 06:31:54;;;;;;;0.00;0.00;;;10.30;78.90;;;;;;5010816;28;20042;-63
2023/05/16 06:34:26;;;;;;;0.00;0.00;;;10.40;78.50;;;;;;5010437;28;20037;-64
2023/05/16 06:36:51;;;;;;;0.05;0.05;;;10.50;78.70;;;;;;5010707;28;20077;-63
2023/05/16 06:39:17;;;;;;;1.27;1.17;;;10.60;78.90;;;;;;5010774;28;20080;-63
2023/05/16 06:41:43;;;;;;;0.00;0.00;;;10.60;75.10;;;;;;5009201;28;20038;-63
2023/05/16 06:44:08;;;;;;;0.00;0.00;;;10.70;75.50;;;;;;5010777;28;20108;-64
2023/05/16 06:46:34;;;;;;;0.00;0.00;;;10.90;75.80;;;;;;4992935;28;20042;-64
2023/05/16 06:48:59;;;;;;;0.10;0.10;;;11.00;75.50;;;;;;4991896;28;20099;-63
2023/05/16 06:51:25;;;;;;;0.28;0.28;;;11.00;75.00;;;;;;5008384;28;20085;-64
2023/05/16 06:53:51;;;;;;;0.00;0.00;;;10.90;72.60;;;;;;5009557;28;20755;-64
2023/05/16 06:56:16;;;;;;;0.00;0.00;;;10.80;72.90;;;;;;5009389;28;20077;-63
2023/05/16 06:58:42;;;;;;;0.08;0.08;;;10.90;73.50;;;;;;5009623;28;20049;-64
2023/05/16 07:01:07;;;;;;;0.00;0.00;;;10.90;73.90;;;;;;5009332;28;20034;-64
2023/05/16 07:03:33;;;;;;;0.00;0.00;;;11.00;73.90;;;;;;5009369;28;20084;-63
2023/05/16 07:05:59;;;;;;;1.20;1.10;;;11.00;74.30;;;;;;5009582;28;20046;-64
2023/05/16 07:08:24;;;;;;;0.03;0.03;;;11.10;74.30;;;;;;5009429;28;20046;-63
2023/05/16 07:10:50;;;;;;;0.22;0.22;;;11.20;73.90;;;;;;5009393;28;20052;-63
2023/05/16 07:13:16;;;;;;;0.00;0.00;;;11.30;72.90;;;;;;5009148;28;20050;-63
2023/05/16 07:15:41;;;;;;;0.00;0.00;;;11.30;71.20;;;;;;5008905;28;20045;-63
2023/05/16 07:18:07;;;;;;;0.25;0.25;;;11.20;71.50;;;;;;5008823;28;20042;-63
2023/05/16 07:20:32;;;;;;;0.00;0.00;;;11.20;70.90;;;;;;5008626;28;20052;-63
2023/05/16 07:22:58;;;;;;;0.00;0.00;;;11.30;71.40;;;;;;5008081;28;20053;-63
2023/05/16 07:25:24;;;;;;;0.00;0.00;;;11.20;70.20;;;;;;5010047;28;20041;-64
2023/05/16 07:27:50;;;;;;;0.00;0.00;;;11.30;69.20;;;;;;5012396;28;20049;-63
2023/05/16 07:30:16;;;;;;;0.00;0.00;;;11.10;68.60;;;;;;5012511;28;20125;-63
2023/05/16 07:32:42;;;;;;;0.00;0.00;;;11.20;70.20;;;;;;5012230;28;20501;-63
2023/05/16 07:35:08;;;;;;;0.00;0.00;;;11.20;68.90;;;;;;5012086;28;20061;-63
2023/05/16 07:37:35;;;;;;;0.10;0.10;;;11.20;69.30;;;;;;5013013;28;20052;-63
2023/05/16 07:40:00;;;;;;;0.00;0.00;;;11.10;66.50;;;;;;5012971;28;20078;-63
2023/05/16 07:42:26;;;;;;;0.00;0.00;;;11.10;68.00;;;;;;5012823;28;20077;-63
2023/05/16 07:44:52;;;;;;;0.00;0.00;;;11.10;67.10;;;;;;5011739;28;20490;-63
2023/05/16 07:47:17;;;;;;;0.00;0.00;;;11.00;67.40;;;;;;5012669;28;20054;-63
2023/05/16 07:49:43;;;;;;;0.00;0.00;;;10.90;67.10;;;;;;5012631;28;20050;-63
2023/05/16 07:52:08;;;;;;;0.00;0.00;;;10.90;68.90;;;;;;5011389;28;20076;-63
2023/05/16 07:54:34;;;;;;;0.40;0.40;;;11.00;69.60;;;;;;5012650;28;20045;-63
2023/05/16 07:57:01;;;;;;;0.38;0.38;;;11.10;70.60;;;;;;5012895;28;20061;-63
2023/05/16 07:59:27;;;;;;;0.00;0.00;;;11.20;70.70;;;;;;5012832;28;20100;-64
2023/05/16 08:01:54;;;;;;;0.20;0.20;;;11.20;67.00;;;;;;5013513;28;20096;-64
2023/05/16 08:04:20;;;;;;;0.03;0.03;;;11.20;68.40;;;;;;5012927;28;20049;-64
2023/05/16 08:06:46;;;;;;;0.00;0.00;;;11.30;68.70;;;;;;4995125;28;20053;-64
2023/05/16 08:09:11;;;;;;;1.15;1.05;;;11.30;68.80;;;;;;5011408;28;20048;-64
2023/05/16 08:11:38;;;;;;;0.00;0.00;;;11.50;68.80;;;;;;5012291;28;20042;-63
2023/05/16 08:14:04;;;;;;;0.00;0.00;;;11.60;69.50;;;;;;5012142;28;20660;-63
2023/05/16 08:16:30;;;;;;;0.00;0.00;;;11.70;69.60;;;;;;5012171;28;20100;-63
2023/05/16 08:18:55;;;;;;;0.00;0.00;;;11.80;68.60;;;;;;5012498;28;20046;-64
2023/05/16 08:21:21;;;;;;;0.00;0.00;;;12.00;67.70;;;;;;5012003;28;20042;-64
2023/05/16 08:23:46;;;;;;;0.00;0.00;;;12.20;68.10;;;;;;5012222;28;20092;-64
2023/05/16 08:26:12;;;;;;;0.00;0.00;;;12.20;67.20;;;;;;5010646;28;20042;-63
2023/05/16 08:28:38;;;;;;;0.30;0.30;;;12.30;67.00;;;;;;5011494;28;20046;-63
2023/05/16 08:31:03;;;;;;;0.00;0.00;;;12.30;67.60;;;;;;5012082;28;20045;-63
2023/05/16 08:33:29;;;;;;;0.75;0.52;;;12.10;66.10;;;;;;5011830;28;20046;-64
2023/05/16 08:35:54;;;;;;;0.00;0.00;;;12.00;67.10;;;;;;5011545;28;20125;-63
2023/05/16 08:38:20;;;;;;;0.00;0.00;;;11.90;67.20;;;;;;5011676;28;20057;-64
2023/05/16 08:40:46;;;;;;;0.10;0.10;;;11.90;67.50;;;;;;5011846;28;20050;-63
2023/05/16 08:43:11;;;;;;;0.00;0.00;;;11.90;67.10;;;;;;5010403;28;20069;-64
2023/05/16 08:45:39;;;;;;;0.00;0.00;;;12.10;68.00;;;;;;5011664;28;20095;-63
2023/05/16 08:48:05;;;;;;;0.00;0.00;;;12.10;66.80;;;;;;5011341;28;20108;-63
2023/05/16 08:50:31;;;;;;;0.00;0.00;;;12.10;66.40;;;;;;5010418;28;20614;-64
2023/05/16 08:52:57;;;;;;;0.03;0.03;;;12.10;67.10;;;;;;5011667;28;20046;-63
2023/05/16 08:55:25;;;;;;;0.00;0.00;;;12.10;67.80;;;;;;5010235;28;20480;-64
2023/05/16 08:57:53;;;;;;;0.00;0.00;;;12.20;67.90;;;;;;5011531;28;20124;-63
2023/05/16 09:00:19;;;;;;;0.00;0.00;;;12.20;67.90;;;;;;5010421;28;20057;-64
2023/05/16 09:02:45;;;;;;;0.00;0.00;;;12.30;68.10;;;;;;5011524;28;20135;-64
2023/05/16 09:05:13;;;;;;;0.10;0.10;;;12.30;67.50;;;;;;5011172;28;20077;-63
2023/05/16 09:07:40;;;;;;;0.00;0.00;;;12.30;68.40;;;;;;5011456;28;20049;-64
2023/05/16 09:10:07;;;;;;;0.00;0.00;;;12.50;68.30;;;;;;5011588;28;20526;-63
2023/05/16 09:12:33;;;;;;;0.00;0.00;;;12.50;66.90;;;;;;5011121;28;20045;-64
2023/05/16 09:15:04;;;;;;;0.00;0.00;;;12.40;66.40;;;;;;5011090;28;20049;-64
2023/05/16 09:17:38;;;;;;;0.00;0.00;;;12.30;68.00;;;;;;5011273;28;20056;-63
2023/05/16 09:20:09;;;;;;;0.20;0.20;;;12.20;68.70;;;;;;5009994;28;20099;-65
2023/05/16 09:22:34;;;;;;;0.00;0.00;;;12.40;68.10;;;;;;5010915;28;20049;-63
2023/05/16 09:25:00;;;;;;;0.00;0.00;;;12.30;66.30;;;;;;5009868;28;20049;-63
2023/05/16 09:27:26;;;;;;;0.00;0.00;;;12.30;63.60;;;;;;5009454;28;20041;-63
2023/05/16 09:29:51;;;;;;;0.00;0.00;;;12.30;64.10;;;;;;5009560;28;20050;-63
2023/05/16 09:32:17;;;;;;;0.00;0.00;;;12.10;66.00;;;;;;5010942;28;20136;-64
2023/05/16 09:34:46;;;;;;;0.00;0.00;;;12.20;67.70;;;;;;5011008;28;20442;-63
2023/05/16 09:37:12;;;;;;;0.00;0.00;;;12.30;69.10;;;;;;5010043;28;20049;-63
2023/05/16 09:39:53;;;;;;;0.00;0.00;;;12.30;64.40;;;;;;5010581;28;20041;-64
2023/05/16 09:42:20;;;;;;;0.10;0.10;;;12.30;65.00;;;;;;5009241;28;20054;-63
2023/05/16 09:44:50;;;;;;;0.00;0.00;;;12.40;65.30;;;;;;5010779;28;20057;-64
2023/05/16 09:47:17;;;;;;;0.00;0.00;;;12.50;64.40;;;;;;5009926;28;20144;-64
2023/05/16 09:49:45;;;;;;;0.00;0.00;;;12.60;64.10;;;;;;5010532;28;20050;-64
2023/05/16 09:52:11;;;;;;;0.00;0.00;;;12.60;62.90;;;;;;5010213;28;20049;-64
2023/05/16 09:54:36;;;;;;;2.00;1.30;;;12.60;64.20;;;;;;5009401;28;20049;-64
2023/05/16 09:57:02;;;;;;;0.00;0.00;;;12.60;65.80;;;;;;5010429;28;20053;-63
2023/05/16 09:59:29;;;;;;;0.10;0.10;;;12.50;64.60;;;;;;5010434;28;20052;-64
2023/05/16 10:01:58;;;;;;;0.00;0.00;;;12.50;64.20;;;;;;5010438;28;20058;-63
2023/05/16 10:04:24;;;;;;;0.00;0.00;;;12.40;63.30;;;;;;5010006;28;20084;-64
2023/05/16 10:06:51;;;;;;;0.00;0.00;;;12.40;64.10;;;;;;5010252;28;20870;-63
2023/05/16 10:09:17;;;;;;;0.00;0.00;;;12.50;64.90;;;;;;5010302;28;20038;-63
2023/05/16 10:11:45;;;;;;;0.00;0.00;;;12.30;65.70;;;;;;5009115;28;20042;-64
2023/05/16 10:14:12;;;;;;;0.10;0.10;;;12.50;62.50;;;;;;5010187;28;20050;-63
2023/05/16 10:16:42;;;;;;;0.00;0.00;;;12.60;62.80;;;;;;5009089;28;20523;-64
2023/05/16 10:19:08;;;;;;;0.00;0.00;;;12.80;62.20;;;;;;5010307;28;20475;-63
2023/05/16 10:21:36;;;;;;;0.00;0.00;;;12.90;61.90;;;;;;5010097;28;20092;-63
2023/05/16 10:24:05;;;;;;;0.22;0.22;;;12.80;61.70;;;;;;5010126;28;20459;-63
2023/05/16 10:26:32;;;;;;;0.00;0.00;;;12.70;63.40;;;;;;5009517;28;20890;-63
2023/05/16 10:29:01;;;;;;;0.00;0.00;;;12.80;64.30;;;;;;5010021;28;20045;-63
2023/05/16 10:31:28;;;;;;;0.00;0.00;;;12.60;63.50;;;;;;5009912;28;20228;-63
2023/05/16 10:33:55;;;;;;;0.30;0.30;;;12.60;64.90;;;;;;5009749;28;20072;-63
2023/05/16 10:36:21;;;;;;;0.10;0.10;;;12.60;66.80;;;;;;5009885;28;20046;-63
2023/05/16 10:38:47;;;;;;;0.00;0.00;;;12.50;65.30;;;;;;5010004;28;20041;-64
2023/05/16 10:41:13;;;;;;;0.10;0.10;;;12.50;66.00;;;;;;5009420;28;20050;-63
2023/05/16 10:43:39;;;;;;;0.00;0.00;;;12.50;65.80;;;;;;5009826;28;20392;-63
2023/05/16 10:46:10;;;;;;;0.00;0.00;;;12.40;66.30;;;;;;5009667;28;20088;-64
2023/05/16 10:48:37;;;;;;;0.00;0.00;;;12.50;66.50;;;;;;5009099;28;20419;-63
2023/05/16 10:51:24;;;;;;;0.00;0.00;;;12.50;66.40;;;;;;5009788;28;20104;-64
2023/05/16 10:53:51;;;;;;;0.00;0.00;;;12.50;67.20;;;;;;5009547;28;20454;-64
2023/05/16 10:56:22;;;;;;;0.00;0.00;;;12.40;69.20;;;;;;5009662;28;20108;-63
2023/05/16 10:58:48;;;;;;;0.07;0.07;;;12.40;67.80;;;;;;5010013;28;20391;-63
2023/05/16 11:01:18;;;;;;;0.00;0.00;;;12.40;68.60;;;;;;5013618;28;20041;-63
2023/05/16 11:03:56;;;;;;;0.03;0.03;;;12.40;64.70;;;;;;5013794;28;20042;-63
2023/05/16 11:06:33;;;;;;;0.00;0.00;;;12.50;64.50;;;;;;5013499;28;20103;-64
2023/05/16 11:11:51;;;;;;;0.00;0.00;;;12.70;66.10;;;;;;5013198;28;20050;-63
2023/05/16 11:14:32;;;;;;;0.63;0.63;;;12.80;67.10;;;;;;5013711;28;20056;-63
2023/05/16 11:17:08;;;;;;;0.00;0.00;;;12.60;69.40;;;;;;5012419;28;20054;-62
2023/05/16 11:19:43;;;;;;;0.10;0.10;;;12.50;70.80;;;;;;5013186;28;20562;-63
2023/05/16 11:22:08;;;;;;;0.00;0.00;;;12.60;70.80;;;;;;5013152;28;20052;-63
2023/05/16 11:24:35;;;;;;;0.00;0.00;;;12.40;67.80;;;;;;5013208;28;20708;-64
2023/05/16 11:27:03;;;;;;;0.15;0.15;;;12.50;65.80;;;;;;5013669;28;20046;-63
2023/05/16 11:29:32;;;;;;;0.00;0.00;;;12.60;66.00;;;;;;5012969;28;20521;-63
2023/05/16 11:31:59;;;;;;;0.00;0.00;;;12.80;65.40;;;;;;5013380;28;20044;-63
2023/05/16 11:34:25;;;;;;;0.28;0.28;;;12.90;64.00;;;;;;5013181;28;20061;-63
2023/05/16 11:36:51;;;;;;;0.00;0.00;;;13.00;63.80;;;;;;5013095;28;20208;-63
2023/05/16 11:39:18;;;;;;;0.00;0.00;;;13.00;63.50;;;;;;5012911;28;20511;-63
2023/05/16 11:41:44;;;;;;;0.00;0.00;;;13.00;64.30;;;;;;5013212;28;20053;-63
2023/05/16 11:44:11;;;;;;;0.73;0.73;;;13.00;64.20;;;;;;5013196;28;20080;-63
2023/05/16 11:46:39;;;;;;;0.00;0.00;;;13.10;64.70;;;;;;5012759;28;20133;-63
2023/05/16 11:49:06;;;;;;;0.00;0.00;;;13.00;64.10;;;;;;5012776;28;20095;-63
2023/05/16 11:51:33;;;;;;;0.00;0.00;;;13.00;64.20;;;;;;5012361;28;20053;-63
2023/05/16 11:54:00;;;;;;;0.10;0.10;;;13.10;63.80;;;;;;5011683;28;20042;-63
2023/05/16 11:56:26;;;;;;;0.43;0.40;;;13.30;62.80;;;;;;5012574;28;20046;-63
2023/05/16 11:58:52;;;;;;;0.03;0.03;;;13.40;61.80;;;;;;5012697;28;20069;-63
2023/05/16 12:01:18;;;;;;;0.00;0.00;;;13.50;62.20;;;;;;5012222;28;20087;-62
2023/05/16 12:03:43;;;;;;;0.00;0.00;;;13.60;60.70;;;;;;5012618;28;20042;-63
2023/05/16 12:06:09;;;;;;;0.00;0.00;;;13.50;61.10;;;;;;5012467;28;20104;-64
2023/05/16 12:08:35;;;;;;;0.00;0.00;;;13.40;59.80;;;;;;5012465;28;20053;-63
2023/05/16 12:11:01;;;;;;;0.00;0.00;;;13.30;60.30;;;;;;5009670;28;20050;-74
2023/05/16 12:13:26;;;;;;;0.00;0.00;;;13.50;60.10;;;;;;5009652;28;20510;-63
2023/05/16 12:15:52;;;;;;;0.00;0.00;;;13.60;59.00;;;;;;5011796;28;20404;-64
2023/05/16 12:18:19;;;;;;;0.00;0.00;;;13.50;58.20;;;;;;5012215;28;20040;-63
2023/05/16 12:20:45;;;;;;;0.00;0.00;;;13.60;58.20;;;;;;5010792;28;20411;-63
2023/05/16 12:23:12;;;;;;;0.10;0.10;;;13.60;56.50;;;;;;5012310;28;20046;-63
2023/05/16 12:25:44;;;;;;;0.00;0.00;;;13.60;55.60;;;;;;5010952;28;20462;-64
2023/05/16 12:28:12;;;;;;;0.00;0.00;;;13.60;55.70;;;;;;5012206;28;20136;-64
2023/05/16 12:30:42;;;;;;;0.08;0.08;;;13.60;56.40;;;;;;5012210;28;20065;-64
2023/05/16 12:33:10;;;;;;;0.00;0.00;;;13.60;55.80;;;;;;5011867;28;20045;-63
2023/05/16 12:35:41;;;;;;;0.00;0.00;;;13.60;56.20;;;;;;4993977;28;20048;-63
2023/05/16 12:38:09;;;;;;;0.00;0.00;;;13.60;57.40;;;;;;5011850;28;20133;-64
2023/05/16 12:40:38;;;;;;;0.47;0.28;;;13.60;57.20;;;;;;5011736;28;20740;-63
2023/05/16 12:43:12;;;;;;;0.20;0.20;;;13.60;58.30;;;;;;5011977;28;20096;-63
2023/05/16 12:45:37;;;;;;;0.10;0.10;;;13.60;57.90;;;;;;5011477;28;20395;-63
2023/05/16 12:48:05;;;;;;;0.00;0.00;;;13.50;59.00;;;;;;5011863;28;20046;-64
2023/05/16 12:50:32;;;;;;;0.00;0.00;;;13.50;60.10;;;;;;5011665;28;20576;-63
2023/05/16 12:52:59;;;;;;;0.20;0.20;;;13.60;61.90;;;;;;5011825;28;20041;-64
2023/05/16 12:55:25;;;;;;;0.30;0.30;;;13.60;60.80;;;;;;5010317;28;20505;-63